sensor_id;sensor_type;location;lat;lon;timestamp;temperature;humidity
29663;DHT22;16578;53.266;7.920;2023-03-14T00:02:09;13.80;68.30
29663;DHT22;16578;53.266;7.920;2023-03-14T00:04:35;13.80;68.30
29663;DHT22;16578;53.266;7.920;2023-03-14T00:07:01;13.80;68.40
29663;DHT22;16578;53.266;7.920;2023-03-14T00:09:26;13.80;68.40
29663;DHT22;16578;53.266;7.920;2023-03-14T00:11:53;13.80;68.40
29663;DHT22;16578;53.266;7.920;2023-03-14T00:14:18;13.80;68.30
29663;DHT22;16578;53.266;7.920;2023-03-14T00:16:47;13.80;68.30
29663;DHT22;16578;53.266;7.920;2023-03-14T00:19:13;13.90;68.40
29663;DHT22;16578;53.266;7.920;2023-03-14T00:21:38;13.80;68.30
29663;DHT22;16578;53.266;7.920;2023-03-14T00:24:04;13.80;68.30
29663;DHT22;16578;53.266;7.920;2023-03-14T00:26:30;13.80;68.30
29663;DHT22;16578;53.266;7.920;2023-03-14T00:28:55;13.90;68.40
29663;DHT22;16578;53.266;7.920;2023-03-14T00:31:21;13.90;68.50
29663;DHT22;16578;53.266;7.920;2023-03-14T00:33:47;13.90;68.40
29663;DHT22;16578;53.266;7.920;2023-03-14T00:36:15;13.90;68.50
29663;DHT22;16578;53.266;7.920;2023-03-14T00:38:42;13.90;68.40
29663;DHT22;16578;53.266;7.920;2023-03-14T00:41:10;13.90;68.40
29663;DHT22;16578;53.266;7.920;2023-03-14T00:43:37;13.90;68.30
29663;DHT22;16578;53.266;7.920;2023-03-14T00:46:03;14.00;68.50
29663;DHT22;16578;53.266;7.920;2023-03-14T00:48:28;13.90;68.40
29663;DHT22;16578;53.266;7.920;2023-03-14T00:50:54;14.00;68.50
29663;DHT22;16578;53.266;7.920;2023-03-14T00:53:20;14.00;68.50
29663;DHT22;16578;53.266;7.920;2023-03-14T00:55:45;14.10;68.50
29663;DHT22;16578;53.266;7.920;2023-03-14T00:58:12;14.10;68.40
29663;DHT22;16578;53.266;7.920;2023-03-14T01:00:39;14.10;68.30
29663;DHT22;16578;53.266;7.920;2023-03-14T01:03:04;14.20;68.30
29663;DHT22;16578;53.266;7.920;2023-03-14T01:05:30;14.20;68.20
29663;DHT22;16578;53.266;7.920;2023-03-14T01:07:56;14.30;68.10
29663;DHT22;16578;53.266;7.920;2023-03-14T01:10:22;14.30;67.90
29663;DHT22;16578;53.266;7.920;2023-03-14T01:12:47;14.30;67.90
29663;DHT22;16578;53.266;7.920;2023-03-14T01:15:13;14.30;67.90
29663;DHT22;16578;53.266;7.920;2023-03-14T01:17:39;14.30;67.90
29663;DHT22;16578;53.266;7.920;2023-03-14T01:20:06;14.30;67.90
29663;DHT22;16578;53.266;7.920;2023-03-14T01:22:37;14.30;67.90
29663;DHT22;16578;53.266;7.920;2023-03-14T01:25:06;14.30;68.10
29663;DHT22;16578;53.266;7.920;2023-03-14T01:27:32;14.40;68.10
29663;DHT22;16578;53.266;7.920;2023-03-14T01:29:58;14.40;68.20
29663;DHT22;16578;53.266;7.920;2023-03-14T01:32:24;14.40;68.40
29663;DHT22;16578;53.266;7.920;2023-03-14T01:34:50;14.40;68.50
29663;DHT22;16578;53.266;7.920;2023-03-14T01:37:16;14.40;68.60
29663;DHT22;16578;53.266;7.920;2023-03-14T01:39:42;14.40;68.70
29663;DHT22;16578;53.266;7.920;2023-03-14T01:42:07;14.40;69.20
29663;DHT22;16578;53.266;7.920;2023-03-14T01:44:59;14.50;69.70
29663;DHT22;16578;53.266;7.920;2023-03-14T01:47:25;14.50;70.50
29663;DHT22;16578;53.266;7.920;2023-03-14T01:50:06;14.50;70.30
29663;DHT22;16578;53.266;7.920;2023-03-14T01:52:37;14.50;71.10
29663;DHT22;16578;53.266;7.920;2023-03-14T01:55:10;14.50;71.10
29663;DHT22;16578;53.266;7.920;2023-03-14T01:57:40;14.40;71.30
29663;DHT22;16578;53.266;7.920;2023-03-14T02:00:14;14.40;71.50
29663;DHT22;16578;53.266;7.920;2023-03-14T02:02:51;14.40;72.00
29663;DHT22;16578;53.266;7.920;2023-03-14T02:05:19;14.40;72.30
29663;DHT22;16578;53.266;7.920;2023-03-14T02:07:55;14.30;72.50
29663;DHT22;16578;53.266;7.920;2023-03-14T02:10:25;14.30;72.20
29663;DHT22;16578;53.266;7.920;2023-03-14T02:12:53;14.30;72.60
29663;DHT22;16578;53.266;7.920;2023-03-14T02:15:20;14.30;72.90
29663;DHT22;16578;53.266;7.920;2023-03-14T02:17:46;14.30;73.10
29663;DHT22;16578;53.266;7.920;2023-03-14T02:26:06;14.20;73.60
29663;DHT22;16578;53.266;7.920;2023-03-14T02:28:34;14.20;73.70
29663;DHT22;16578;53.266;7.920;2023-03-14T02:31:00;14.10;73.50
29663;DHT22;16578;53.266;7.920;2023-03-14T02:33:26;14.00;73.10
29663;DHT22;16578;53.266;7.920;2023-03-14T02:35:56;14.00;73.10
29663;DHT22;16578;53.266;7.920;2023-03-14T02:39:05;13.90;73.00
29663;DHT22;16578;53.266;7.920;2023-03-14T02:41:31;13.90;73.40
29663;DHT22;16578;53.266;7.920;2023-03-14T02:43:57;13.70;73.40
29663;DHT22;16578;53.266;7.920;2023-03-14T02:46:22;13.70;73.00
29663;DHT22;16578;53.266;7.920;2023-03-14T02:48:58;13.70;73.20
29663;DHT22;16578;53.266;7.920;2023-03-14T02:51:26;13.60;73.50
29663;DHT22;16578;53.266;7.920;2023-03-14T02:53:53;13.50;73.60
29663;DHT22;16578;53.266;7.920;2023-03-14T02:56:18;13.50;73.80
29663;DHT22;16578;53.266;7.920;2023-03-14T02:58:44;13.40;74.00
29663;DHT22;16578;53.266;7.920;2023-03-14T03:01:09;13.40;75.10
29663;DHT22;16578;53.266;7.920;2023-03-14T03:03:35;13.40;74.40
29663;DHT22;16578;53.266;7.920;2023-03-14T03:06:01;13.30;74.40
29663;DHT22;16578;53.266;7.920;2023-03-14T03:08:27;13.30;74.60
29663;DHT22;16578;53.266;7.920;2023-03-14T03:10:53;13.30;74.80
29663;DHT22;16578;53.266;7.920;2023-03-14T03:13:19;13.30;75.90
29663;DHT22;16578;53.266;7.920;2023-03-14T03:15:44;13.30;75.10
29663;DHT22;16578;53.266;7.920;2023-03-14T03:18:10;13.30;75.20
29663;DHT22;16578;53.266;7.920;2023-03-14T03:20:36;13.30;75.30
29663;DHT22;16578;53.266;7.920;2023-03-14T03:23:03;13.20;75.30
29663;DHT22;16578;53.266;7.920;2023-03-14T03:25:30;13.20;75.50
29663;DHT22;16578;53.266;7.920;2023-03-14T03:27:55;13.20;75.40
29663;DHT22;16578;53.266;7.920;2023-03-14T03:30:21;13.20;75.60
29663;DHT22;16578;53.266;7.920;2023-03-14T03:32:47;13.20;75.70
29663;DHT22;16578;53.266;7.920;2023-03-14T03:35:13;13.20;75.70
29663;DHT22;16578;53.266;7.920;2023-03-14T03:37:39;13.20;75.70
29663;DHT22;16578;53.266;7.920;2023-03-14T03:40:05;13.20;75.80
29663;DHT22;16578;53.266;7.920;2023-03-14T03:42:32;13.20;75.90
29663;DHT22;16578;53.266;7.920;2023-03-14T03:44:58;13.20;76.00
29663;DHT22;16578;53.266;7.920;2023-03-14T03:47:24;13.20;76.00
29663;DHT22;16578;53.266;7.920;2023-03-14T03:49:49;13.20;76.00
29663;DHT22;16578;53.266;7.920;2023-03-14T03:52:15;13.20;76.10
29663;DHT22;16578;53.266;7.920;2023-03-14T03:54:40;13.30;76.10
29663;DHT22;16578;53.266;7.920;2023-03-14T03:57:06;13.30;76.20
29663;DHT22;16578;53.266;7.920;2023-03-14T03:59:31;13.30;76.30
29663;DHT22;16578;53.266;7.920;2023-03-14T04:01:57;13.20;76.20
29663;DHT22;16578;53.266;7.920;2023-03-14T04:04:22;13.30;76.30
29663;DHT22;16578;53.266;7.920;2023-03-14T04:06:48;13.30;76.30
29663;DHT22;16578;53.266;7.920;2023-03-14T04:09:14;13.30;76.40
29663;DHT22;16578;53.266;7.920;2023-03-14T04:11:39;13.30;76.40
29663;DHT22;16578;53.266;7.920;2023-03-14T04:14:06;13.30;76.40
29663;DHT22;16578;53.266;7.920;2023-03-14T04:16:32;13.30;76.50
29663;DHT22;16578;53.266;7.920;2023-03-14T04:18:57;13.30;76.60
29663;DHT22;16578;53.266;7.920;2023-03-14T04:21:23;13.30;76.60
29663;DHT22;16578;53.266;7.920;2023-03-14T04:23:49;13.30;77.40
29663;DHT22;16578;53.266;7.920;2023-03-14T04:26:15;13.30;76.60
29663;DHT22;16578;53.266;7.920;2023-03-14T04:28:41;13.30;76.60
29663;DHT22;16578;53.266;7.920;2023-03-14T04:31:18;13.30;76.60
29663;DHT22;16578;53.266;7.920;2023-03-14T04:33:44;13.30;76.90
29663;DHT22;16578;53.266;7.920;2023-03-14T04:36:11;13.30;76.80
29663;DHT22;16578;53.266;7.920;2023-03-14T04:38:36;13.30;76.80
29663;DHT22;16578;53.266;7.920;2023-03-14T04:41:02;13.30;76.80
29663;DHT22;16578;53.266;7.920;2023-03-14T04:43:28;13.30;76.90
29663;DHT22;16578;53.266;7.920;2023-03-14T04:45:55;13.30;76.90
29663;DHT22;16578;53.266;7.920;2023-03-14T04:48:21;13.30;76.90
29663;DHT22;16578;53.266;7.920;2023-03-14T04:50:47;13.30;77.80
29663;DHT22;16578;53.266;7.920;2023-03-14T04:53:13;13.30;76.90
29663;DHT22;16578;53.266;7.920;2023-03-14T04:55:39;13.30;76.90
29663;DHT22;16578;53.266;7.920;2023-03-14T04:58:04;13.30;76.80
29663;DHT22;16578;53.266;7.920;2023-03-14T05:00:30;13.30;76.80
29663;DHT22;16578;53.266;7.920;2023-03-14T05:02:55;13.30;76.80
29663;DHT22;16578;53.266;7.920;2023-03-14T05:05:21;13.30;76.80
29663;DHT22;16578;53.266;7.920;2023-03-14T05:07:47;13.30;76.80
29663;DHT22;16578;53.266;7.920;2023-03-14T05:10:12;13.30;76.80
29663;DHT22;16578;53.266;7.920;2023-03-14T05:12:38;13.30;76.80
29663;DHT22;16578;53.266;7.920;2023-03-14T05:15:04;13.30;76.80
29663;DHT22;16578;53.266;7.920;2023-03-14T05:17:32;13.30;76.80
29663;DHT22;16578;53.266;7.920;2023-03-14T05:19:57;13.30;76.80
29663;DHT22;16578;53.266;7.920;2023-03-14T05:22:23;13.30;76.70
29663;DHT22;16578;53.266;7.920;2023-03-14T05:24:48;13.30;76.70
29663;DHT22;16578;53.266;7.920;2023-03-14T05:27:14;13.30;76.70
29663;DHT22;16578;53.266;7.920;2023-03-14T05:29:39;13.30;76.70
29663;DHT22;16578;53.266;7.920;2023-03-14T05:32:05;13.30;76.70
29663;DHT22;16578;53.266;7.920;2023-03-14T05:34:31;13.20;76.70
29663;DHT22;16578;53.266;7.920;2023-03-14T05:36:56;13.20;76.80
29663;DHT22;16578;53.266;7.920;2023-03-14T05:39:22;13.20;76.80
29663;DHT22;16578;53.266;7.920;2023-03-14T05:41:47;13.20;76.80
29663;DHT22;16578;53.266;7.920;2023-03-14T05:44:13;13.20;76.80
29663;DHT22;16578;53.266;7.920;2023-03-14T05:46:39;13.20;76.80
29663;DHT22;16578;53.266;7.920;2023-03-14T05:49:04;13.10;76.80
29663;DHT22;16578;53.266;7.920;2023-03-14T05:51:30;13.20;76.90
29663;DHT22;16578;53.266;7.920;2023-03-14T05:53:55;13.10;76.90
29663;DHT22;16578;53.266;7.920;2023-03-14T05:56:21;13.10;76.90
29663;DHT22;16578;53.266;7.920;2023-03-14T05:58:46;13.10;76.90
29663;DHT22;16578;53.266;7.920;2023-03-14T06:01:12;13.10;77.00
29663;DHT22;16578;53.266;7.920;2023-03-14T06:03:37;13.10;77.00
29663;DHT22;16578;53.266;7.920;2023-03-14T06:06:03;13.10;77.00
29663;DHT22;16578;53.266;7.920;2023-03-14T06:08:28;13.10;77.10
29663;DHT22;16578;53.266;7.920;2023-03-14T06:10:54;13.10;77.10
29663;DHT22;16578;53.266;7.920;2023-03-14T06:13:21;13.10;77.20
29663;DHT22;16578;53.266;7.920;2023-03-14T06:15:47;13.10;77.20
29663;DHT22;16578;53.266;7.920;2023-03-14T06:18:12;13.00;77.20
29663;DHT22;16578;53.266;7.920;2023-03-14T06:20:39;13.00;77.30
29663;DHT22;16578;53.266;7.920;2023-03-14T06:23:08;13.00;77.30
29663;DHT22;16578;53.266;7.920;2023-03-14T06:25:34;13.10;77.40
29663;DHT22;16578;53.266;7.920;2023-03-14T06:28:01;13.00;77.40
29663;DHT22;16578;53.266;7.920;2023-03-14T06:30:27;13.00;77.40
29663;DHT22;16578;53.266;7.920;2023-03-14T06:32:52;13.00;77.50
29663;DHT22;16578;53.266;7.920;2023-03-14T06:35:18;13.00;77.50
29663;DHT22;16578;53.266;7.920;2023-03-14T06:37:44;13.10;77.60
29663;DHT22;16578;53.266;7.920;2023-03-14T06:40:11;13.10;77.60
29663;DHT22;16578;53.266;7.920;2023-03-14T06:42:39;13.10;77.60
29663;DHT22;16578;53.266;7.920;2023-03-14T06:45:05;13.10;77.60
29663;DHT22;16578;53.266;7.920;2023-03-14T06:47:31;13.10;77.50
29663;DHT22;16578;53.266;7.920;2023-03-14T06:49:56;13.10;77.50
29663;DHT22;16578;53.266;7.920;2023-03-14T06:52:22;13.10;77.40
29663;DHT22;16578;53.266;7.920;2023-03-14T06:54:47;13.10;78.30
29663;DHT22;16578;53.266;7.920;2023-03-14T06:57:13;13.10;77.50
29663;DHT22;16578;53.266;7.920;2023-03-14T06:59:38;13.20;77.50
29663;DHT22;16578;53.266;7.920;2023-03-14T07:02:04;13.20;77.50
29663;DHT22;16578;53.266;7.920;2023-03-14T07:04:29;13.20;77.50
29663;DHT22;16578;53.266;7.920;2023-03-14T07:06:55;13.20;77.60
29663;DHT22;16578;53.266;7.920;2023-03-14T07:09:20;13.20;77.60
29663;DHT22;16578;53.266;7.920;2023-03-14T07:11:46;13.20;77.60
29663;DHT22;16578;53.266;7.920;2023-03-14T07:14:12;13.20;77.60
29663;DHT22;16578;53.266;7.920;2023-03-14T07:16:37;13.20;77.60
29663;DHT22;16578;53.266;7.920;2023-03-14T07:19:03;13.20;77.70
29663;DHT22;16578;53.266;7.920;2023-03-14T07:21:29;13.20;77.70
29663;DHT22;16578;53.266;7.920;2023-03-14T07:23:55;13.20;77.70
29663;DHT22;16578;53.266;7.920;2023-03-14T07:26:20;13.20;77.70
29663;DHT22;16578;53.266;7.920;2023-03-14T07:28:46;13.20;77.70
29663;DHT22;16578;53.266;7.920;2023-03-14T07:31:12;13.20;77.80
29663;DHT22;16578;53.266;7.920;2023-03-14T07:33:38;13.20;77.80
29663;DHT22;16578;53.266;7.920;2023-03-14T07:36:03;13.20;77.90
29663;DHT22;16578;53.266;7.920;2023-03-14T07:38:29;13.20;77.90
29663;DHT22;16578;53.266;7.920;2023-03-14T07:41:03;13.20;77.90
29663;DHT22;16578;53.266;7.920;2023-03-14T07:43:29;13.20;78.10
29663;DHT22;16578;53.266;7.920;2023-03-14T07:45:55;13.20;78.10
29663;DHT22;16578;53.266;7.920;2023-03-14T07:48:21;13.30;78.20
29663;DHT22;16578;53.266;7.920;2023-03-14T07:50:54;13.30;78.20
29663;DHT22;16578;53.266;7.920;2023-03-14T07:53:20;13.30;78.10
29663;DHT22;16578;53.266;7.920;2023-03-14T07:55:46;13.30;78.00
29663;DHT22;16578;53.266;7.920;2023-03-14T07:58:13;13.30;78.00
29663;DHT22;16578;53.266;7.920;2023-03-14T08:00:39;13.30;78.80
29663;DHT22;16578;53.266;7.920;2023-03-14T08:03:04;13.40;78.10
29663;DHT22;16578;53.266;7.920;2023-03-14T08:05:30;13.30;78.00
29663;DHT22;16578;53.266;7.920;2023-03-14T08:07:56;13.30;77.20
29663;DHT22;16578;53.266;7.920;2023-03-14T08:10:21;13.20;74.60
29663;DHT22;16578;53.266;7.920;2023-03-14T08:12:50;13.00;72.60
29663;DHT22;16578;53.266;7.920;2023-03-14T08:15:16;12.70;72.70
29663;DHT22;16578;53.266;7.920;2023-03-14T08:17:42;12.40;72.50
29663;DHT22;16578;53.266;7.920;2023-03-14T08:20:08;12.10;72.90
29663;DHT22;16578;53.266;7.920;2023-03-14T08:22:36;11.80;72.90
29663;DHT22;16578;53.266;7.920;2023-03-14T08:25:01;11.50;73.20
29663;DHT22;16578;53.266;7.920;2023-03-14T08:27:27;11.30;73.10
29663;DHT22;16578;53.266;7.920;2023-03-14T08:29:52;11.00;73.10
29663;DHT22;16578;53.266;7.920;2023-03-14T08:32:18;10.80;73.40
29663;DHT22;16578;53.266;7.920;2023-03-14T08:34:45;10.50;73.50
29663;DHT22;16578;53.266;7.920;2023-03-14T08:37:11;10.30;73.70
29663;DHT22;16578;53.266;7.920;2023-03-14T08:39:37;10.00;73.70
29663;DHT22;16578;53.266;7.920;2023-03-14T08:42:02;9.80;73.60
29663;DHT22;16578;53.266;7.920;2023-03-14T08:44:31;9.60;73.60
29663;DHT22;16578;53.266;7.920;2023-03-14T08:46:59;9.40;73.70
29663;DHT22;16578;53.266;7.920;2023-03-14T08:49:24;9.20;73.90
29663;DHT22;16578;53.266;7.920;2023-03-14T08:51:50;9.00;74.00
29663;DHT22;16578;53.266;7.920;2023-03-14T08:54:15;8.70;74.20
29663;DHT22;16578;53.266;7.920;2023-03-14T08:56:44;8.60;74.50
29663;DHT22;16578;53.266;7.920;2023-03-14T08:59:10;8.40;75.10
29663;DHT22;16578;53.266;7.920;2023-03-14T09:01:36;8.30;75.20
29663;DHT22;16578;53.266;7.920;2023-03-14T09:04:02;8.20;75.40
29663;DHT22;16578;53.266;7.920;2023-03-14T09:06:28;8.10;75.60
29663;DHT22;16578;53.266;7.920;2023-03-14T09:08:53;8.00;75.80
29663;DHT22;16578;53.266;7.920;2023-03-14T09:11:19;7.90;76.10
29663;DHT22;16578;53.266;7.920;2023-03-14T09:13:44;7.80;76.40
29663;DHT22;16578;53.266;7.920;2023-03-14T09:16:10;7.80;76.80
29663;DHT22;16578;53.266;7.920;2023-03-14T09:18:36;7.70;77.00
29663;DHT22;16578;53.266;7.920;2023-03-14T09:21:02;7.70;77.10
29663;DHT22;16578;53.266;7.920;2023-03-14T09:23:27;7.70;78.10
29663;DHT22;16578;53.266;7.920;2023-03-14T09:26:00;7.70;77.50
29663;DHT22;16578;53.266;7.920;2023-03-14T09:28:27;7.70;78.00
29663;DHT22;16578;53.266;7.920;2023-03-14T09:30:52;7.70;77.90
29663;DHT22;16578;53.266;7.920;2023-03-14T09:33:19;7.70;78.10
29663;DHT22;16578;53.266;7.920;2023-03-14T09:35:45;7.70;78.40
29663;DHT22;16578;53.266;7.920;2023-03-14T09:38:11;7.80;78.60
29663;DHT22;16578;53.266;7.920;2023-03-14T09:40:41;7.80;78.70
29663;DHT22;16578;53.266;7.920;2023-03-14T09:43:11;7.80;78.80
29663;DHT22;16578;53.266;7.920;2023-03-14T09:45:39;7.90;78.80
29663;DHT22;16578;53.266;7.920;2023-03-14T09:48:08;8.00;79.10
29663;DHT22;16578;53.266;7.920;2023-03-14T09:50:44;8.10;79.00
29663;DHT22;16578;53.266;7.920;2023-03-14T09:53:18;8.10;79.20
29663;DHT22;16578;53.266;7.920;2023-03-14T09:55:46;8.20;79.30
29663;DHT22;16578;53.266;7.920;2023-03-14T09:58:16;8.30;79.20
29663;DHT22;16578;53.266;7.920;2023-03-14T10:00:42;8.40;78.90
29663;DHT22;16578;53.266;7.920;2023-03-14T10:03:21;8.40;78.70
29663;DHT22;16578;53.266;7.920;2023-03-14T10:05:47;8.50;78.70
29663;DHT22;16578;53.266;7.920;2023-03-14T10:08:13;8.60;78.70
29663;DHT22;16578;53.266;7.920;2023-03-14T10:10:39;8.60;78.70
29663;DHT22;16578;53.266;7.920;2023-03-14T10:13:39;8.70;78.70
29663;DHT22;16578;53.266;7.920;2023-03-14T10:16:13;8.70;78.40
29663;DHT22;16578;53.266;7.920;2023-03-14T10:18:44;8.80;78.50
29663;DHT22;16578;53.266;7.920;2023-03-14T10:21:30;8.90;78.40
29663;DHT22;16578;53.266;7.920;2023-03-14T10:24:21;9.00;78.70
29663;DHT22;16578;53.266;7.920;2023-03-14T10:26:55;9.00;78.30
29663;DHT22;16578;53.266;7.920;2023-03-14T10:29:23;9.10;79.10
29663;DHT22;16578;53.266;7.920;2023-03-14T10:31:58;9.10;78.10
29663;DHT22;16578;53.266;7.920;2023-03-14T10:36:59;9.30;78.10
29663;DHT22;16578;53.266;7.920;2023-03-14T10:40:05;9.40;78.10
29663;DHT22;16578;53.266;7.920;2023-03-14T10:42:24;9.50;78.00
29663;DHT22;16578;53.266;7.920;2023-03-14T10:45:01;9.50;77.70
29663;DHT22;16578;53.266;7.920;2023-03-14T10:47:28;9.60;77.00
29663;DHT22;16578;53.266;7.920;2023-03-14T10:49:54;9.70;76.70
29663;DHT22;16578;53.266;7.920;2023-03-14T10:52:22;9.70;76.10
29663;DHT22;16578;53.266;7.920;2023-03-14T10:54:58;9.70;75.60
29663;DHT22;16578;53.266;7.920;2023-03-14T10:57:24;9.70;75.40
29663;DHT22;16578;53.266;7.920;2023-03-14T10:59:51;9.60;75.60
29663;DHT22;16578;53.266;7.920;2023-03-14T11:02:39;9.60;75.80
29663;DHT22;16578;53.266;7.920;2023-03-14T11:05:14;9.60;76.00
29663;DHT22;16578;53.266;7.920;2023-03-14T11:07:43;9.60;76.00
29663;DHT22;16578;53.266;7.920;2023-03-14T11:13:24;9.70;75.90
29663;DHT22;16578;53.266;7.920;2023-03-14T11:16:32;9.70;75.80
29663;DHT22;16578;53.266;7.920;2023-03-14T11:19:20;9.70;74.90
29663;DHT22;16578;53.266;7.920;2023-03-14T11:21:59;9.70;74.30
29663;DHT22;16578;53.266;7.920;2023-03-14T11:24:37;9.80;74.10
29663;DHT22;16578;53.266;7.920;2023-03-14T11:27:17;9.80;73.70
29663;DHT22;16578;53.266;7.920;2023-03-14T11:32:34;9.70;72.10
29663;DHT22;16578;53.266;7.920;2023-03-14T11:35:04;9.80;72.90
29663;DHT22;16578;53.266;7.920;2023-03-14T11:37:36;9.80;71.40
29663;DHT22;16578;53.266;7.920;2023-03-14T11:40:21;9.80;71.30
29663;DHT22;16578;53.266;7.920;2023-03-14T11:43:13;9.80;70.10
29663;DHT22;16578;53.266;7.920;2023-03-14T11:45:42;9.70;70.10
29663;DHT22;16578;53.266;7.920;2023-03-14T11:51:06;9.70;69.30
29663;DHT22;16578;53.266;7.920;2023-03-14T11:53:57;9.70;69.40
29663;DHT22;16578;53.266;7.920;2023-03-14T11:59:31;9.70;68.30
29663;DHT22;16578;53.266;7.920;2023-03-14T12:02:05;9.70;67.20
29663;DHT22;16578;53.266;7.920;2023-03-14T12:04:43;9.60;66.90
29663;DHT22;16578;53.266;7.920;2023-03-14T12:07:22;9.50;64.90
29663;DHT22;16578;53.266;7.920;2023-03-14T12:09:50;9.50;64.30
29663;DHT22;16578;53.266;7.920;2023-03-14T12:12:21;9.40;65.10
29663;DHT22;16578;53.266;7.920;2023-03-14T12:14:58;9.40;64.40
29663;DHT22;16578;53.266;7.920;2023-03-14T12:17:34;9.40;63.40
29663;DHT22;16578;53.266;7.920;2023-03-14T12:20:16;9.30;63.50
29663;DHT22;16578;53.266;7.920;2023-03-14T12:23:02;9.30;63.10
29663;DHT22;16578;53.266;7.920;2023-03-14T12:25:30;9.40;62.60
29663;DHT22;16578;53.266;7.920;2023-03-14T12:38:09;9.40;61.70
29663;DHT22;16578;53.266;7.920;2023-03-14T12:41:42;9.40;61.00
29663;DHT22;16578;53.266;7.920;2023-03-14T12:43:35;9.50;61.50
29663;DHT22;16578;53.266;7.920;2023-03-14T12:48:45;9.50;60.50
29663;DHT22;16578;53.266;7.920;2023-03-14T12:51:14;9.50;61.70
29663;DHT22;16578;53.266;7.920;2023-03-14T12:56:24;9.60;61.30
29663;DHT22;16578;53.266;7.920;2023-03-14T12:59:13;9.70;60.80
29663;DHT22;16578;53.266;7.920;2023-03-14T13:02:37;9.80;60.40
29663;DHT22;16578;53.266;7.920;2023-03-14T13:04:36;9.80;60.40
29663;DHT22;16578;53.266;7.920;2023-03-14T13:07:12;9.90;60.50
29663;DHT22;16578;53.266;7.920;2023-03-14T13:10:03;9.90;61.20
29663;DHT22;16578;53.266;7.920;2023-03-14T13:12:42;9.90;60.80
29663;DHT22;16578;53.266;7.920;2023-03-14T13:15:22;9.90;60.50
29663;DHT22;16578;53.266;7.920;2023-03-14T13:17:49;9.90;60.70
29663;DHT22;16578;53.266;7.920;2023-03-14T13:21:05;9.90;60.60
29663;DHT22;16578;53.266;7.920;2023-03-14T13:23:22;9.90;60.00
29663;DHT22;16578;53.266;7.920;2023-03-14T13:25:48;9.90;60.00
29663;DHT22;16578;53.266;7.920;2023-03-14T13:28:14;9.90;59.80
29663;DHT22;16578;53.266;7.920;2023-03-14T13:30:43;9.90;60.10
29663;DHT22;16578;53.266;7.920;2023-03-14T13:33:18;9.90;58.30
29663;DHT22;16578;53.266;7.920;2023-03-14T13:35:50;9.90;58.00
29663;DHT22;16578;53.266;7.920;2023-03-14T13:38:22;9.90;58.10
29663;DHT22;16578;53.266;7.920;2023-03-14T13:40:48;9.90;57.40
29663;DHT22;16578;53.266;7.920;2023-03-14T13:43:30;9.80;55.40
29663;DHT22;16578;53.266;7.920;2023-03-14T13:46:04;9.90;57.90
29663;DHT22;16578;53.266;7.920;2023-03-14T13:48:32;10.00;57.80
29663;DHT22;16578;53.266;7.920;2023-03-14T13:51:05;10.00;58.90
29663;DHT22;16578;53.266;7.920;2023-03-14T13:53:32;10.00;58.80
29663;DHT22;16578;53.266;7.920;2023-03-14T13:56:02;10.00;59.10
29663;DHT22;16578;53.266;7.920;2023-03-14T13:58:31;10.10;58.40
29663;DHT22;16578;53.266;7.920;2023-03-14T14:01:12;10.10;57.90
29663;DHT22;16578;53.266;7.920;2023-03-14T14:03:41;10.00;56.20
29663;DHT22;16578;53.266;7.920;2023-03-14T14:06:16;10.00;57.60
29663;DHT22;16578;53.266;7.920;2023-03-14T14:08:43;10.00;57.60
29663;DHT22;16578;53.266;7.920;2023-03-14T14:13:52;10.00;57.80
29663;DHT22;16578;53.266;7.920;2023-03-14T14:16:19;9.90;57.70
29663;DHT22;16578;53.266;7.920;2023-03-14T14:18:47;9.90;57.60
29663;DHT22;16578;53.266;7.920;2023-03-14T14:21:13;9.80;57.60
29663;DHT22;16578;53.266;7.920;2023-03-14T14:23:39;9.80;58.00
29663;DHT22;16578;53.266;7.920;2023-03-14T14:26:06;9.80;58.40
29663;DHT22;16578;53.266;7.920;2023-03-14T14:28:36;9.80;57.40
29663;DHT22;16578;53.266;7.920;2023-03-14T14:33:45;9.80;57.20
29663;DHT22;16578;53.266;7.920;2023-03-14T14:36:23;9.70;57.60
29663;DHT22;16578;53.266;7.920;2023-03-14T14:38:57;9.70;56.90
29663;DHT22;16578;53.266;7.920;2023-03-14T14:41:26;9.70;57.40
29663;DHT22;16578;53.266;7.920;2023-03-14T14:43:52;9.70;57.30
29663;DHT22;16578;53.266;7.920;2023-03-14T14:46:19;9.70;57.90
29663;DHT22;16578;53.266;7.920;2023-03-14T14:48:45;9.80;57.70
29663;DHT22;16578;53.266;7.920;2023-03-14T14:51:26;9.80;58.10
29663;DHT22;16578;53.266;7.920;2023-03-14T14:54:05;9.80;58.00
29663;DHT22;16578;53.266;7.920;2023-03-14T14:56:36;9.90;57.10
29663;DHT22;16578;53.266;7.920;2023-03-14T14:59:02;9.90;57.20
29663;DHT22;16578;53.266;7.920;2023-03-14T15:01:38;9.90;56.80
29663;DHT22;16578;53.266;7.920;2023-03-14T15:04:13;9.90;56.20
29663;DHT22;16578;53.266;7.920;2023-03-14T15:06:40;9.90;56.30
29663;DHT22;16578;53.266;7.920;2023-03-14T15:09:12;9.90;56.90
29663;DHT22;16578;53.266;7.920;2023-03-14T15:11:37;9.90;56.30
29663;DHT22;16578;53.266;7.920;2023-03-14T15:14:03;9.90;56.50
29663;DHT22;16578;53.266;7.920;2023-03-14T15:16:31;9.90;55.20
29663;DHT22;16578;53.266;7.920;2023-03-14T15:18:59;9.90;55.70
29663;DHT22;16578;53.266;7.920;2023-03-14T15:21:26;9.90;56.00
29663;DHT22;16578;53.266;7.920;2023-03-14T15:23:52;9.90;56.20
29663;DHT22;16578;53.266;7.920;2023-03-14T15:26:20;9.90;56.00
29663;DHT22;16578;53.266;7.920;2023-03-14T15:28:47;10.00;55.90
29663;DHT22;16578;53.266;7.920;2023-03-14T15:31:13;9.90;55.80
29663;DHT22;16578;53.266;7.920;2023-03-14T15:33:40;9.90;55.90
29663;DHT22;16578;53.266;7.920;2023-03-14T15:36:14;9.90;56.10
29663;DHT22;16578;53.266;7.920;2023-03-14T15:38:42;9.90;55.90
29663;DHT22;16578;53.266;7.920;2023-03-14T15:41:09;9.80;56.70
29663;DHT22;16578;53.266;7.920;2023-03-14T15:43:34;9.80;56.90
29663;DHT22;16578;53.266;7.920;2023-03-14T15:46:00;9.80;57.10
29663;DHT22;16578;53.266;7.920;2023-03-14T15:48:25;9.80;57.10
29663;DHT22;16578;53.266;7.920;2023-03-14T15:50:51;9.80;57.50
29663;DHT22;16578;53.266;7.920;2023-03-14T15:53:16;9.70;57.80
29663;DHT22;16578;53.266;7.920;2023-03-14T15:55:42;9.70;58.00
29663;DHT22;16578;53.266;7.920;2023-03-14T15:58:16;9.80;58.30
29663;DHT22;16578;53.266;7.920;2023-03-14T16:00:41;9.80;57.90
29663;DHT22;16578;53.266;7.920;2023-03-14T16:03:07;9.80;57.70
29663;DHT22;16578;53.266;7.920;2023-03-14T16:05:32;9.80;57.70
29663;DHT22;16578;53.266;7.920;2023-03-14T16:07:58;9.80;57.40
29663;DHT22;16578;53.266;7.920;2023-03-14T16:10:23;9.80;57.10
29663;DHT22;16578;53.266;7.920;2023-03-14T16:12:49;9.80;57.10
29663;DHT22;16578;53.266;7.920;2023-03-14T16:15:14;9.80;57.20
29663;DHT22;16578;53.266;7.920;2023-03-14T16:17:40;9.80;57.70
29663;DHT22;16578;53.266;7.920;2023-03-14T16:20:08;9.70;57.70
29663;DHT22;16578;53.266;7.920;2023-03-14T16:22:34;9.70;57.80
29663;DHT22;16578;53.266;7.920;2023-03-14T16:25:06;9.70;57.70
29663;DHT22;16578;53.266;7.920;2023-03-14T16:27:32;9.70;57.60
29663;DHT22;16578;53.266;7.920;2023-03-14T16:29:58;9.60;57.90